createdAt,value
2023-09-12T00:02:01.140Z,100796.75
2023-09-12T00:04:04.761Z,100798.44
2023-09-12T00:06:07.441Z,100799.28
2023-09-12T00:08:10.054Z,100805.59
2023-09-12T00:10:13.036Z,100800.69
2023-09-12T00:12:18.483Z,100799.66
2023-09-12T00:14:20.716Z,100803.03
2023-09-12T00:16:23.413Z,100803.06
2023-09-12T00:18:27.059Z,100807.09
2023-09-12T00:20:29.707Z,100811.47
2023-09-12T00:22:32.510Z,100813.34
2023-09-12T00:24:35.177Z,100814.00
2023-09-12T00:26:37.672Z,100813.81
2023-09-12T00:28:40.596Z,100811.59
2023-09-12T00:30:43.532Z,100812.59
2023-09-12T00:32:48.494Z,100818.34
2023-09-12T00:34:51.098Z,100804.78
2023-09-12T00:36:53.606Z,100809.66
2023-09-12T00:38:56.179Z,100805.78
2023-09-12T00:40:58.712Z,100813.38
2023-09-12T00:43:01.529Z,100808.44
2023-09-12T00:45:04.157Z,100814.34
2023-09-12T00:47:07.945Z,100816.88
2023-09-12T00:49:12.101Z,100808.53
2023-09-12T00:51:17.428Z,100804.44
2023-09-12T00:53:22.032Z,100808.47
2023-09-12T00:55:24.973Z,100807.09
2023-09-12T00:57:28.359Z,100816.91
2023-09-12T00:59:31.681Z,100811.97
2023-09-12T01:01:45.985Z,100815.84
2023-09-12T01:03:48.923Z,100814.78
2023-09-12T01:05:53.072Z,100807.31
2023-09-12T01:07:58.273Z,100814.59
2023-09-12T01:10:04.025Z,100816.75
2023-09-12T01:12:07.504Z,100815.22
2023-09-12T01:14:13.651Z,100812.97
2023-09-12T01:16:16.197Z,100816.16
2023-09-12T01:18:19.015Z,100815.97
2023-09-12T01:20:27.640Z,100809.16
2023-09-12T01:22:44.923Z,100811.19
2023-09-12T01:24:59.307Z,100807.25
2023-09-12T01:27:35.363Z,100807.56
2023-09-12T01:29:39.986Z,100807.31
2023-09-12T01:31:44.051Z,100806.78
2023-09-12T01:33:46.682Z,100807.94
2023-09-12T01:35:49.330Z,100798.44
2023-09-12T01:37:53.739Z,100798.75
2023-09-12T01:39:56.901Z,100801.22
2023-09-12T01:42:01.458Z,100803.44
2023-09-12T01:44:06.168Z,100801.34
2023-09-12T01:46:09.937Z,100795.94
2023-09-12T01:48:14.340Z,100790.00
2023-09-12T01:50:18.607Z,100802.41
2023-09-12T01:52:21.795Z,100808.97
2023-09-12T01:54:25.176Z,100817.22
2023-09-12T01:56:27.981Z,100819.41
2023-09-12T01:58:33.281Z,100805.50
2023-09-12T02:00:36.649Z,100808.34
2023-09-12T02:02:39.386Z,100800.72
2023-09-12T02:04:41.940Z,100802.72
2023-09-12T02:06:44.445Z,100798.63
2023-09-12T02:08:46.921Z,100790.31
2023-09-12T02:10:51.106Z,100795.84
2023-09-12T02:12:53.572Z,100795.44
2023-09-12T02:14:56.182Z,100793.06
2023-09-12T02:16:58.969Z,100782.53
2023-09-12T02:19:01.589Z,100785.53
2023-09-12T02:21:04.318Z,100783.31
2023-09-12T02:23:07.081Z,100785.16
2023-09-12T02:25:10.042Z,100789.84
2023-09-12T02:27:12.688Z,100784.75
2023-09-12T02:29:15.156Z,100781.66
2023-09-12T02:31:17.690Z,100789.03
2023-09-12T02:33:20.439Z,100783.94
2023-09-12T02:35:22.970Z,100786.25
2023-09-12T02:37:25.515Z,100790.97
2023-09-12T02:39:28.386Z,100797.66
2023-09-12T02:41:30.896Z,100791.56
2023-09-12T02:43:33.993Z,100792.84
2023-09-12T02:45:36.614Z,100800.25
2023-09-12T02:47:39.284Z,100806.22
2023-09-12T02:49:41.849Z,100803.84
2023-09-12T02:51:44.512Z,100807.84
2023-09-12T02:53:47.014Z,100816.22
2023-09-12T02:55:49.549Z,100814.81
2023-09-12T02:57:53.356Z,100809.72
2023-09-12T02:59:55.836Z,100808.28
2023-09-12T03:01:58.468Z,100813.97
2023-09-12T03:04:02.080Z,100816.00
2023-09-12T03:06:05.462Z,100812.88
2023-09-12T03:08:08.006Z,100811.47
2023-09-12T03:10:10.792Z,100818.28
2023-09-12T03:12:13.356Z,100817.69
2023-09-12T03:14:15.945Z,100813.63
2023-09-12T03:16:18.455Z,100813.75
2023-09-12T03:18:21.274Z,100816.03
2023-09-12T03:20:23.826Z,100821.56
2023-09-12T03:22:26.388Z,100822.00
2023-09-12T03:24:30.553Z,100833.75
2023-09-12T03:26:35.617Z,100827.81
2023-09-12T03:28:41.380Z,100821.56
2023-09-12T03:30:44.069Z,100818.47
2023-09-12T03:32:47.052Z,100814.94
2023-09-12T03:34:49.646Z,100815.22
2023-09-12T03:36:52.242Z,100813.09
2023-09-12T03:38:54.765Z,100813.94
2023-09-12T03:40:57.347Z,100806.28
2023-09-12T03:43:00.309Z,100814.50
2023-09-12T03:45:02.827Z,100814.78
2023-09-12T03:47:05.663Z,100816.75
2023-09-12T03:49:08.415Z,100803.03
2023-09-12T03:51:10.975Z,100804.03
2023-09-12T03:53:15.156Z,100803.19
2023-09-12T03:55:18.002Z,100809.69
2023-09-12T03:57:20.919Z,100806.56
2023-09-12T03:59:23.541Z,100805.84
2023-09-12T04:01:26.070Z,100807.84
2023-09-12T04:03:28.611Z,100815.19
2023-09-12T04:05:31.304Z,100814.53
2023-09-12T04:07:33.825Z,100813.81
2023-09-12T04:09:36.359Z,100820.19
2023-09-12T04:11:46.349Z,100818.63
2023-09-12T04:13:50.020Z,100811.66
2023-09-12T04:15:52.691Z,100798.75
2023-09-12T04:17:55.435Z,100803.03
2023-09-12T04:19:57.961Z,100799.63
2023-09-12T04:22:01.467Z,100796.63
2023-09-12T04:24:04.089Z,100799.31
2023-09-12T04:26:06.598Z,100797.56
2023-09-12T04:28:09.164Z,100783.44
2023-09-12T04:30:12.139Z,100777.34
2023-09-12T04:32:14.648Z,100772.09
2023-09-12T04:34:17.141Z,100771.53
2023-09-12T04:36:20.070Z,100763.72
2023-09-12T04:38:25.488Z,100762.03
2023-09-12T04:40:28.708Z,100752.41
2023-09-12T04:42:32.269Z,100748.13
2023-09-12T04:44:38.739Z,100741.19
2023-09-12T04:46:43.310Z,100734.09
2023-09-12T04:48:47.029Z,100728.06
2023-09-12T04:50:49.868Z,100723.09
2023-09-12T04:52:52.382Z,100718.81
2023-09-12T04:54:54.935Z,100727.03
2023-09-12T04:56:57.483Z,100719.50
2023-09-12T04:59:00.054Z,100720.50
2023-09-12T05:01:02.666Z,100717.38
2023-09-12T05:03:05.823Z,100725.31
2023-09-12T05:05:08.720Z,100729.13
2023-09-12T05:07:11.593Z,100730.41
2023-09-12T05:09:14.163Z,100725.03
2023-09-12T05:11:17.098Z,100727.84
2023-09-12T05:13:19.639Z,100725.56
2023-09-12T05:15:22.195Z,100720.19
2023-09-12T05:17:25.209Z,100714.97
2023-09-12T05:19:28.136Z,100708.88
2023-09-12T05:21:30.655Z,100696.41
2023-09-12T05:23:33.554Z,100686.78
2023-09-12T05:25:36.067Z,100680.81
2023-09-12T05:27:38.684Z,100685.34
2023-09-12T05:29:41.248Z,100684.09
2023-09-12T05:31:43.898Z,100687.03
2023-09-12T05:33:46.594Z,100688.31
2023-09-12T05:35:49.188Z,100686.75
2023-09-12T05:37:53.053Z,100693.09
2023-09-12T05:39:55.538Z,100685.31
2023-09-12T05:41:58.027Z,100684.59
2023-09-12T05:44:00.595Z,100680.78
2023-09-12T05:46:04.107Z,100694.63
2023-09-12T05:48:06.780Z,100695.06
2023-09-12T05:50:09.578Z,100702.53
2023-09-12T05:52:12.670Z,100695.47
2023-09-12T05:54:16.169Z,100699.38
2023-09-12T05:56:19.109Z,100703.03
2023-09-12T05:58:21.620Z,100699.75
2023-09-12T06:00:24.231Z,100687.44
2023-09-12T06:02:26.957Z,100693.81
2023-09-12T06:04:29.607Z,100697.47
2023-09-12T06:06:32.384Z,100702.16
2023-09-12T06:08:35.000Z,100697.78
2023-09-12T06:10:37.478Z,100699.75
2023-09-12T06:12:40.051Z,100690.97
2023-09-12T06:14:42.654Z,100692.94
2023-09-12T06:16:45.337Z,100681.19
2023-09-12T06:18:49.977Z,100677.22
2023-09-12T06:20:53.850Z,100681.59
2023-09-12T06:22:56.325Z,100686.25
2023-09-12T06:24:58.852Z,100682.97
2023-09-12T06:27:01.431Z,100686.66
2023-09-12T06:29:04.290Z,100690.31
2023-09-12T06:31:11.112Z,100687.03
2023-09-12T06:33:13.773Z,100681.97
2023-09-12T06:35:16.348Z,100686.50
2023-09-12T06:37:20.006Z,100683.09
2023-09-12T06:39:22.536Z,100685.91
2023-09-12T06:41:25.427Z,100677.25
2023-09-12T06:43:27.955Z,100677.38
2023-09-12T06:45:32.253Z,100676.53
2023-09-12T06:47:34.847Z,100680.34
2023-09-12T06:49:39.142Z,100682.88
2023-09-12T06:51:41.775Z,100691.91
2023-09-12T06:53:45.058Z,100683.28
2023-09-12T06:55:47.832Z,100681.69
2023-09-12T06:57:50.445Z,100676.63
2023-09-12T06:59:53.075Z,100680.28
2023-09-12T07:01:55.662Z,100674.22
2023-09-12T07:03:58.420Z,100663.72
2023-09-12T07:06:01.340Z,100663.00
2023-09-12T07:08:03.969Z,100663.00
2023-09-12T07:10:22.483Z,100661.56
2023-09-12T07:12:30.634Z,100657.19
2023-09-12T07:14:33.215Z,100662.81
2023-09-12T07:16:35.761Z,100658.53
2023-09-12T07:18:38.474Z,100653.47
2023-09-12T07:20:41.077Z,100657.13
2023-09-12T07:22:43.684Z,100649.22
2023-09-12T07:24:46.221Z,100638.63
2023-09-12T07:26:48.739Z,100638.75
2023-09-12T07:28:52.111Z,100634.50
2023-09-12T07:30:58.726Z,100638.28
2023-09-12T07:33:01.377Z,100634.16
2023-09-12T07:35:04.317Z,100632.19
2023-09-12T07:37:06.798Z,100626.22
2023-09-12T07:39:09.479Z,100625.50
2023-09-12T07:41:12.052Z,100641.47
2023-09-12T07:43:14.608Z,100634.41
2023-09-12T07:45:17.237Z,100639.78
2023-09-12T07:47:20.674Z,100640.03
2023-09-12T07:49:23.264Z,100641.16
2023-09-12T07:51:26.069Z,100640.31
2023-09-12T07:53:28.590Z,100642.38
2023-09-12T07:55:34.761Z,100645.19
2023-09-12T07:57:38.179Z,100648.00
2023-09-12T07:59:40.717Z,100646.41
2023-09-12T08:01:43.231Z,100643.00
2023-09-12T08:03:46.070Z,100646.81
2023-09-12T08:05:59.201Z,100650.47
2023-09-12T08:08:02.366Z,100639.00
2023-09-12T08:10:05.513Z,100646.19
2023-09-12T08:12:08.347Z,100649.88
2023-09-12T08:14:10.826Z,100639.25
2023-09-12T08:16:13.428Z,100645.75
2023-09-12T08:18:16.767Z,100642.34
2023-09-12T08:20:20.397Z,100638.22
2023-09-12T08:22:22.996Z,100635.28
2023-09-12T08:24:25.600Z,100638.94
2023-09-12T08:26:29.582Z,100632.88
2023-09-12T08:28:32.869Z,100628.72
2023-09-12T08:30:35.466Z,100636.53
2023-09-12T08:32:38.056Z,100631.53
2023-09-12T08:34:40.566Z,100632.38
2023-09-12T08:36:43.102Z,100635.19
2023-09-12T08:38:45.652Z,100633.38
2023-09-12T08:40:52.429Z,100626.31
2023-09-12T08:42:55.803Z,100623.88
2023-09-12T08:44:58.413Z,100628.38
2023-09-12T08:47:02.447Z,100619.91
2023-09-12T08:49:07.910Z,100624.41
2023-09-12T08:51:14.052Z,100614.78
2023-09-12T08:53:16.928Z,100617.59
2023-09-12T08:55:19.792Z,100610.53
2023-09-12T08:57:23.528Z,100617.13
2023-09-12T08:59:28.219Z,100619.81
2023-09-12T09:01:32.963Z,100620.53
2023-09-12T09:03:36.915Z,100619.81
2023-09-12T09:05:43.805Z,100627.13
2023-09-12T09:07:46.436Z,100633.44
2023-09-12T09:09:53.183Z,100632.59
2023-09-12T09:11:55.970Z,100623.84
2023-09-12T09:13:58.547Z,100622.97
2023-09-12T09:16:16.840Z,100623.72
2023-09-12T09:18:19.328Z,100621.75
2023-09-12T09:20:38.737Z,100620.06
2023-09-12T09:22:57.399Z,100615.53
2023-09-12T09:25:14.138Z,100619.19
2023-09-12T09:27:35.541Z,100617.63
2023-09-12T09:29:49.706Z,100618.59
2023-09-12T09:31:53.540Z,100623.97
2023-09-12T09:33:57.549Z,100622.25
2023-09-12T09:36:08.117Z,100616.03
2023-09-12T09:38:10.845Z,100611.78
2023-09-12T09:40:13.594Z,100609.84
2023-09-12T09:42:16.465Z,100611.66
2023-09-12T09:44:19.480Z,100604.59
2023-09-12T09:46:22.430Z,100606.44
2023-09-12T09:48:28.669Z,100608.25
2023-09-12T09:50:31.182Z,100612.63
2023-09-12T09:52:33.695Z,100621.66
2023-09-12T09:54:36.257Z,100615.44
2023-09-12T09:56:55.466Z,100619.97
2023-09-12T09:58:58.976Z,100615.72
2023-09-12T10:01:03.116Z,100616.56
2023-09-12T10:03:12.385Z,100621.09
2023-09-12T10:05:16.024Z,100628.16
2023-09-12T10:07:19.267Z,100624.00
2023-09-12T10:09:27.809Z,100630.94
2023-09-12T10:11:35.059Z,100635.47
2023-09-12T10:13:39.469Z,100639.34
2023-09-12T10:15:44.964Z,100631.44
2023-09-12T10:17:52.848Z,100634.84
2023-09-12T10:20:06.005Z,100635.94
2023-09-12T10:22:20.540Z,100638.63
2023-09-12T10:24:24.820Z,100631.44
2023-09-12T10:26:27.525Z,100631.69
2023-09-12T10:28:30.374Z,100635.34
2023-09-12T10:30:34.135Z,100632.78
2023-09-12T10:32:37.200Z,100641.81
2023-09-12T10:34:41.578Z,100643.50
2023-09-12T10:36:45.545Z,100639.84
2023-09-12T10:38:50.247Z,100651.53
2023-09-12T10:40:54.613Z,100644.47
2023-09-12T10:42:59.068Z,100650.69
2023-09-12T10:45:03.374Z,100650.69
2023-09-12T10:47:07.041Z,100648.84
2023-09-12T10:49:13.472Z,100641.69
2023-09-12T10:51:18.474Z,100641.56
2023-09-12T10:53:25.927Z,100632.66
2023-09-12T10:55:29.001Z,100635.94
2023-09-12T10:57:31.587Z,100642.16
2023-09-12T10:59:37.101Z,100647.41
2023-09-12T11:01:41.850Z,100643.75
2023-09-12T11:03:45.289Z,100642.75
2023-09-12T11:05:56.278Z,100648.00
2023-09-12T11:08:00.255Z,100645.44
2023-09-12T11:10:18.898Z,100654.94
2023-09-12T11:12:37.265Z,100667.34
2023-09-12T11:15:10.138Z,100661.00
2023-09-12T11:17:12.920Z,100655.50
2023-09-12T11:19:24.655Z,100650.75
2023-09-12T11:21:36.398Z,100645.53
2023-09-12T11:25:45.242Z,100648.56
2023-09-12T11:28:05.748Z,100636.97
2023-09-12T11:30:08.742Z,100641.25
2023-09-12T11:32:11.565Z,100644.66
2023-09-12T11:34:16.494Z,100645.38
2023-09-12T11:36:21.300Z,100648.06
2023-09-12T11:38:31.669Z,100650.38
2023-09-12T11:40:34.125Z,100653.75
2023-09-12T11:42:41.806Z,100656.28
2023-09-12T11:44:46.363Z,100652.63
2023-09-12T11:46:52.440Z,100661.41
2023-09-12T11:48:55.168Z,100654.09
2023-09-12T11:50:58.617Z,100637.41
2023-09-12T11:53:12.170Z,100641.53
2023-09-12T11:55:24.254Z,100650.44
2023-09-12T11:57:26.465Z,100641.16
2023-09-12T11:59:29.126Z,100629.47
2023-09-12T12:01:32.194Z,100629.47
2023-09-12T12:03:35.367Z,100628.22
2023-09-12T12:05:39.443Z,100623.47
2023-09-12T12:07:44.315Z,100609.25
2023-09-12T12:09:46.924Z,100612.53
2023-09-12T12:11:49.682Z,100610.44
2023-09-12T12:13:53.182Z,100601.78
2023-09-12T12:15:55.780Z,100607.69
2023-09-12T12:17:58.810Z,100603.75
2023-09-12T12:20:02.104Z,100605.47
2023-09-12T12:22:09.379Z,100604.34
2023-09-12T12:24:17.749Z,100609.59
2023-09-12T12:26:21.019Z,100614.69
2023-09-12T12:28:23.776Z,100619.34
2023-09-12T12:30:26.354Z,100620.72
2023-09-12T12:32:28.906Z,100621.03
2023-09-12T12:35:41.300Z,100627.03
2023-09-12T12:36:58.397Z,100634.66
2023-09-12T12:39:01.969Z,100644.88
2023-09-12T12:41:04.620Z,100650.00
2023-09-12T12:43:07.814Z,100649.72
2023-09-12T12:45:15.320Z,100648.88
2023-09-12T12:47:17.944Z,100646.66
2023-09-12T12:49:22.116Z,100648.09
2023-09-12T12:51:26.922Z,100650.63
2023-09-12T12:53:52.072Z,100636.22
2023-09-12T12:55:56.494Z,100629.50
2023-09-12T12:57:59.128Z,100614.97
2023-09-12T13:00:02.331Z,100618.09
2023-09-12T13:02:05.258Z,100610.03
2023-09-12T13:04:11.512Z,100614.88
2023-09-12T13:06:18.589Z,100611.34
2023-09-12T13:08:21.182Z,100616.84
2023-09-12T13:10:25.044Z,100615.56
2023-09-12T13:12:27.599Z,100626.78
2023-09-12T13:14:32.591Z,100626.50
2023-09-12T13:16:35.933Z,100634.28
2023-09-12T13:18:39.612Z,100628.06
2023-09-12T13:20:42.212Z,100622.31
2023-09-12T13:22:44.967Z,100623.03
2023-09-12T13:24:48.304Z,100620.34
2023-09-12T13:26:50.980Z,100622.75
2023-09-12T13:28:53.531Z,100620.50
2023-09-12T13:30:56.424Z,100622.19
2023-09-12T13:32:59.149Z,100626.19
2023-09-12T13:35:01.715Z,100630.44
2023-09-12T13:37:12.047Z,100638.94
2023-09-12T13:39:15.940Z,100644.06
2023-09-12T13:41:18.503Z,100647.41
2023-09-12T13:43:21.568Z,100655.94
2023-09-12T13:45:24.198Z,100649.31
2023-09-12T13:47:27.424Z,100643.66
2023-09-12T13:49:29.903Z,100655.53
2023-09-12T13:51:32.533Z,100650.00
2023-09-12T13:53:35.276Z,100649.66
2023-09-12T13:55:41.808Z,100650.34
2023-09-12T13:58:00.723Z,100651.63
2023-09-12T14:00:03.545Z,100654.03
2023-09-12T14:02:06.806Z,100654.47
2023-09-12T14:04:09.744Z,100645.44
2023-09-12T14:06:12.671Z,100636.38
2023-09-12T14:08:15.370Z,100632.00
2023-09-12T14:10:31.151Z,100632.44
2023-09-12T14:12:38.435Z,100625.34
2023-09-12T14:14:42.615Z,100625.66
2023-09-12T14:16:49.007Z,100633.28
2023-09-12T14:18:52.435Z,100610.06
2023-09-12T14:20:56.758Z,100609.53
2023-09-12T14:23:00.288Z,100613.06
2023-09-12T14:25:03.530Z,100601.63
2023-09-12T14:29:09.938Z,100605.41
2023-09-12T14:31:15.784Z,100607.13
2023-09-12T14:33:20.140Z,100607.53
2023-09-12T14:35:22.669Z,100605.56
2023-09-12T14:37:28.849Z,100600.63
2023-09-12T14:39:31.370Z,100596.78
2023-09-12T14:41:34.124Z,100604.31
2023-09-12T14:43:36.642Z,100607.81
2023-09-12T14:45:40.011Z,100609.22
2023-09-12T14:47:42.937Z,100605.25
2023-09-12T14:49:50.212Z,100599.59
2023-09-12T14:51:54.117Z,100592.94
2023-09-12T14:53:56.661Z,100581.03
2023-09-12T14:55:59.162Z,100580.91
2023-09-12T14:58:01.731Z,100583.72
2023-09-12T15:00:05.004Z,100578.91
2023-09-12T15:02:07.643Z,100589.13
2023-09-12T15:04:10.616Z,100594.22
2023-09-12T15:06:13.316Z,100579.75
2023-09-12T15:08:15.819Z,100586.25
2023-09-12T15:10:19.455Z,100579.59
2023-09-12T15:12:21.956Z,100585.69
2023-09-12T15:14:24.604Z,100584.28
2023-09-12T15:16:27.710Z,100582.81
2023-09-12T15:18:30.486Z,100581.38
2023-09-12T15:20:34.014Z,100574.88
2023-09-12T15:22:36.604Z,100579.69
2023-09-12T15:24:39.169Z,100571.16
2023-09-12T15:26:42.236Z,100562.59
2023-09-12T15:28:44.786Z,100567.69
2023-09-12T15:30:47.535Z,100557.34
2023-09-12T15:32:50.082Z,100552.50
2023-09-12T15:34:52.699Z,100557.31
2023-09-12T15:37:21.522Z,100553.97
2023-09-12T15:39:25.347Z,100550.84
2023-09-12T15:41:27.910Z,100549.41
2023-09-12T15:43:30.886Z,100555.19
2023-09-12T15:45:48.243Z,100549.50
2023-09-12T15:47:53.025Z,100545.47
2023-09-12T15:49:55.710Z,100543.22
2023-09-12T15:51:58.856Z,100542.22
2023-09-12T15:54:01.438Z,100535.97
2023-09-12T15:56:04.008Z,100527.28
2023-09-12T15:58:06.600Z,100531.94
2023-09-12T16:00:12.441Z,100531.28
2023-09-12T16:02:15.139Z,100534.69
2023-09-12T16:04:17.743Z,100536.91
2023-09-12T16:06:20.392Z,100527.69
2023-09-12T16:08:22.908Z,100530.75
2023-09-12T16:10:25.480Z,100549.31
2023-09-12T16:12:28.893Z,100540.22
2023-09-12T16:14:31.762Z,100534.50
2023-09-12T16:16:34.325Z,100530.66
2023-09-12T16:18:39.363Z,100528.50
2023-09-12T16:20:42.077Z,100531.03
2023-09-12T16:22:44.649Z,100520.09
2023-09-12T16:24:47.376Z,100502.22
2023-09-12T16:26:49.961Z,100512.41
2023-09-12T16:28:53.162Z,100508.84
2023-09-12T16:30:56.153Z,100512.41
2023-09-12T16:32:58.893Z,100512.84
2023-09-12T16:35:02.368Z,100501.06
2023-09-12T16:37:05.223Z,100499.91
2023-09-12T16:39:08.463Z,100502.44
2023-09-12T16:41:10.993Z,100506.84
2023-09-12T16:43:13.518Z,100496.91
2023-09-12T16:45:16.108Z,100504.00
2023-09-12T16:47:19.324Z,100496.22
2023-09-12T16:49:21.890Z,100494.19
2023-09-12T16:51:24.503Z,100496.56
2023-09-12T16:53:27.019Z,100501.50
2023-09-12T16:55:29.543Z,100503.03
2023-09-12T16:57:32.105Z,100488.53
2023-09-12T16:59:34.657Z,100485.53
2023-09-12T17:01:37.218Z,100477.13
2023-09-12T17:03:40.258Z,100482.50
2023-09-12T17:05:42.976Z,100481.03
2023-09-12T17:07:45.598Z,100471.94
2023-09-12T17:09:48.217Z,100468.72
2023-09-12T17:11:50.782Z,100462.66
2023-09-12T17:13:53.618Z,100470.44
2023-09-12T17:15:57.375Z,100472.84
2023-09-12T17:18:00.217Z,100465.13
2023-09-12T17:20:02.930Z,100458.88
2023-09-12T17:22:05.717Z,100458.56
2023-09-12T17:24:08.514Z,100457.22
2023-09-12T17:26:11.099Z,100443.91
2023-09-12T17:28:13.688Z,100437.88
2023-09-12T17:30:17.714Z,100441.41
2023-09-12T17:32:20.221Z,100453.91
2023-09-12T17:34:46.297Z,100446.34
2023-09-12T17:36:48.857Z,100446.69
2023-09-12T17:38:51.375Z,100447.88
2023-09-12T17:40:53.900Z,100451.63
2023-09-12T17:43:00.237Z,100442.72
2023-09-12T17:45:03.259Z,100439.16
2023-09-12T17:47:06.073Z,100433.28
2023-09-12T17:49:08.780Z,100432.78
2023-09-12T17:51:11.444Z,100416.25
2023-09-12T17:53:14.052Z,100427.06
2023-09-12T17:55:18.394Z,100420.34
2023-09-12T17:57:20.921Z,100422.03
2023-09-12T17:59:24.528Z,100422.22
2023-09-12T18:01:27.472Z,100435.75
2023-09-12T18:03:32.422Z,100440.31
2023-09-12T18:05:35.581Z,100441.31
2023-09-12T18:07:38.093Z,100430.69
2023-09-12T18:09:40.727Z,100431.19
2023-09-12T18:11:43.378Z,100431.69
2023-09-12T18:13:49.497Z,100429.69
2023-09-12T18:15:52.190Z,100424.75
2023-09-12T18:17:55.248Z,100432.69
2023-09-12T18:19:58.262Z,100426.09
2023-09-12T18:22:00.757Z,100420.19
2023-09-12T18:24:03.784Z,100420.88
2023-09-12T18:26:06.598Z,100414.28
2023-09-12T18:28:09.155Z,100426.44
2023-09-12T18:30:12.051Z,100414.44
2023-09-12T18:32:14.522Z,100413.44
2023-09-12T18:34:19.851Z,100419.16
2023-09-12T18:36:23.752Z,100405.44
2023-09-12T18:38:26.249Z,100408.66
2023-09-12T18:40:30.009Z,100413.06
2023-09-12T18:42:32.553Z,100406.28
2023-09-12T18:44:35.026Z,100404.25
2023-09-12T18:46:37.763Z,100407.50
2023-09-12T18:48:41.812Z,100397.53
2023-09-12T18:50:45.202Z,100402.56
2023-09-12T18:52:55.345Z,100404.25
2023-09-12T18:54:58.912Z,100396.97
2023-09-12T18:57:09.600Z,100396.47
2023-09-12T18:59:12.097Z,100382.94
2023-09-12T19:01:16.402Z,100377.19
2023-09-12T19:03:19.120Z,100384.94
2023-09-12T19:05:21.893Z,100378.50
2023-09-12T19:07:24.563Z,100369.41
2023-09-12T19:09:27.602Z,100375.16
2023-09-12T19:11:30.278Z,100373.28
2023-09-12T19:13:32.903Z,100371.94
2023-09-12T19:15:37.292Z,100377.19
2023-09-12T19:17:41.061Z,100378.88
2023-09-12T19:19:43.673Z,100382.25
2023-09-12T19:21:47.130Z,100380.22
2023-09-12T19:23:49.766Z,100368.38
2023-09-12T19:25:52.301Z,100351.28
2023-09-12T19:27:54.847Z,100351.78
2023-09-12T19:29:57.948Z,100347.38
2023-09-12T19:32:00.588Z,100355.50
2023-09-12T19:34:04.965Z,100355.16
2023-09-12T19:36:07.711Z,100347.66
2023-09-12T19:38:10.949Z,100346.81
2023-09-12T19:40:16.579Z,100336.84
2023-09-12T19:42:19.771Z,100343.09
2023-09-12T19:44:22.321Z,100342.25
2023-09-12T19:46:25.291Z,100336.00
2023-09-12T19:48:27.929Z,100338.53
2023-09-12T19:50:33.381Z,100337.50
2023-09-12T19:52:35.865Z,100335.66
2023-09-12T19:54:38.467Z,100334.81
2023-09-12T19:56:41.019Z,100334.81
2023-09-12T19:58:43.546Z,100333.28
2023-09-12T20:00:46.944Z,100335.81
2023-09-12T20:02:50.775Z,100332.25
2023-09-12T20:04:53.480Z,100330.41
2023-09-12T20:06:56.571Z,100333.28
2023-09-12T20:08:59.664Z,100329.78
2023-09-12T20:11:07.637Z,100324.16
2023-09-12T20:13:13.017Z,100316.22
2023-09-12T20:15:15.591Z,100322.66
2023-09-12T20:17:18.198Z,100319.63
2023-09-12T20:19:21.130Z,100317.94
2023-09-12T20:21:23.686Z,100317.94
2023-09-12T20:23:27.214Z,100320.66
2023-09-12T20:25:29.957Z,100315.91
2023-09-12T20:27:32.568Z,100323.34
2023-09-12T20:29:35.090Z,100317.09
2023-09-12T20:31:37.681Z,100321.66
2023-09-12T20:33:40.479Z,100316.25
2023-09-12T20:35:43.285Z,100319.97
2023-09-12T20:37:46.003Z,100313.72
2023-09-12T20:39:50.130Z,100312.88
2023-09-12T20:41:53.121Z,100309.31
2023-09-12T20:43:55.985Z,100307.47
2023-09-12T20:45:58.598Z,100304.09
2023-09-12T20:48:01.305Z,100310.34
2023-09-12T20:50:07.124Z,100303.25
2023-09-12T20:52:09.743Z,100302.41
2023-09-12T20:54:12.882Z,100298.84
2023-09-12T20:56:15.596Z,100307.81
2023-09-12T20:58:18.539Z,100299.88
2023-09-12T21:00:24.352Z,100300.38
2023-09-12T21:02:26.979Z,100297.69
2023-09-12T21:04:29.727Z,100292.94
2023-09-12T21:06:33.543Z,100296.31
2023-09-12T21:08:36.324Z,100294.44
2023-09-12T21:10:38.835Z,100297.34
2023-09-12T21:12:41.350Z,100297.34
2023-09-12T21:14:43.862Z,100293.94
2023-09-12T21:16:46.533Z,100290.59
2023-09-12T21:18:49.275Z,100289.94
2023-09-12T21:20:54.704Z,100284.31
2023-09-12T21:22:57.837Z,100286.84
2023-09-12T21:25:00.639Z,100285.00
2023-09-12T21:27:03.303Z,100286.56
2023-09-12T21:29:05.862Z,100282.16
2023-09-12T21:31:08.523Z,100283.84
2023-09-12T21:33:11.102Z,100285.53
2023-09-12T21:35:20.249Z,100282.63
2023-09-12T21:37:23.054Z,100284.53
2023-09-12T21:39:25.571Z,100288.88
2023-09-12T21:41:28.080Z,100283.84
2023-09-12T21:43:30.705Z,100295.53
2023-09-12T21:45:33.293Z,100294.50
2023-09-12T21:47:39.497Z,100300.75
2023-09-12T21:49:42.008Z,100296.38
2023-09-12T21:51:44.551Z,100288.25
2023-09-12T21:53:47.163Z,100283.00
2023-09-12T21:55:52.467Z,100289.94
2023-09-12T21:57:54.959Z,100282.16
2023-09-12T21:59:59.094Z,100289.09
2023-09-12T22:02:01.715Z,100280.13
2023-09-12T22:04:04.542Z,100283.84
2023-09-12T22:06:08.009Z,100280.44
2023-09-12T22:08:10.723Z,100281.63
2023-09-12T22:10:13.843Z,100277.91
2023-09-12T22:12:16.794Z,100275.03
2023-09-12T22:14:19.282Z,100268.78
2023-09-12T22:16:21.909Z,100268.78
2023-09-12T22:18:26.624Z,100266.25
2023-09-12T22:20:29.585Z,100261.84
2023-09-12T22:22:32.509Z,100262.69
2023-09-12T22:24:35.055Z,100271.47
2023-09-12T22:26:37.591Z,100271.84
2023-09-12T22:28:40.924Z,100277.91
2023-09-12T22:30:43.694Z,100262.88
2023-09-12T22:32:46.282Z,100256.63
2023-09-12T22:34:48.773Z,100266.59
2023-09-12T22:36:51.311Z,100261.19
2023-09-12T22:38:53.810Z,100268.44
2023-09-12T22:40:56.316Z,100257.81
2023-09-12T22:42:58.895Z,100259.84
2023-09-12T22:45:01.400Z,100258.16
2023-09-12T22:47:04.013Z,100259.16
2023-09-12T22:49:06.779Z,100254.78
2023-09-12T22:51:09.296Z,100263.91
2023-09-12T22:53:12.168Z,100254.44
2023-09-12T22:55:14.809Z,100247.34
2023-09-12T22:57:17.341Z,100245.03
2023-09-12T22:59:19.910Z,100245.03
2023-09-12T23:01:22.466Z,100245.88
2023-09-12T23:03:25.332Z,100245.38
2023-09-12T23:05:27.808Z,100249.94
2023-09-12T23:07:30.388Z,100238.28
2023-09-12T23:09:33.019Z,100239.81
2023-09-12T23:11:35.508Z,100240.16
2023-09-12T23:13:38.061Z,100242.69
2023-09-12T23:15:41.148Z,100233.72
2023-09-12T23:17:44.025Z,100237.28
2023-09-12T23:19:46.627Z,100237.28
2023-09-12T23:21:51.404Z,100243.53
2023-09-12T23:23:54.468Z,100235.59
2023-09-12T23:25:57.237Z,100231.19
2023-09-12T23:27:59.839Z,100231.19
2023-09-12T23:30:02.937Z,100237.63
2023-09-12T23:32:05.933Z,100247.75
2023-09-12T23:34:10.092Z,100236.94
2023-09-12T23:36:12.943Z,100230.00
2023-09-12T23:38:15.725Z,100228.16
2023-09-12T23:40:18.311Z,100230.88